createdAt,value
2022-08-28T00:02:43.820Z,0
2022-08-28T00:09:03.722Z,0
2022-08-28T00:15:26.777Z,0
2022-08-28T00:21:46.728Z,0
2022-08-28T00:28:09.938Z,0
2022-08-28T00:34:33.204Z,0
2022-08-28T00:40:52.724Z,0
2022-08-28T00:47:12.758Z,0
2022-08-28T00:53:35.722Z,0
2022-08-28T00:59:55.724Z,0
2022-08-28T01:06:18.756Z,0
2022-08-28T01:12:38.714Z,0
2022-08-28T01:19:01.759Z,0
2022-08-28T01:25:21.723Z,0
2022-08-28T01:31:44.721Z,0
2022-08-28T01:38:04.717Z,0
2022-08-28T01:44:27.724Z,0
2022-08-28T01:50:47.750Z,0
2022-08-28T01:57:10.733Z,0
2022-08-28T02:03:30.741Z,0
2022-08-28T02:09:53.745Z,0
2022-08-28T02:16:13.817Z,0
2022-08-28T02:22:36.762Z,0
2022-08-28T02:28:56.732Z,0
2022-08-28T02:35:19.729Z,0
2022-08-28T02:41:39.742Z,0
2022-08-28T02:48:02.722Z,0
2022-08-28T02:54:22.759Z,0
2022-08-28T03:00:45.738Z,0
2022-08-28T03:07:05.754Z,0
2022-08-28T03:13:28.769Z,0
2022-08-28T03:19:48.722Z,0
2022-08-28T03:26:11.730Z,0
2022-08-28T03:32:31.754Z,0
2022-08-28T03:38:54.722Z,0
2022-08-28T03:45:14.773Z,0
2022-08-28T03:51:37.719Z,0
2022-08-28T03:57:57.732Z,0
2022-08-28T04:21:38.659Z,0
2022-08-28T04:28:01.729Z,0
2022-08-28T04:34:21.723Z,0
2022-08-28T04:40:44.766Z,0
2022-08-28T04:47:04.721Z,0
2022-08-28T04:53:28.058Z,0
2022-08-28T04:59:47.734Z,0
2022-08-28T05:06:10.744Z,5.62
2022-08-28T05:12:30.763Z,5.62
2022-08-28T05:18:53.726Z,5.62
2022-08-28T05:25:13.759Z,11.25
2022-08-28T05:31:36.779Z,11.25
2022-08-28T05:37:56.728Z,16.88
2022-08-28T05:44:19.758Z,16.88
2022-08-28T05:50:40.734Z,16.88
2022-08-28T05:57:02.775Z,16.88
2022-08-28T06:03:22.749Z,22.5
2022-08-28T06:09:45.740Z,22.5
2022-08-28T06:16:05.826Z,28.12
2022-08-28T06:22:28.724Z,28.12
2022-08-28T06:28:48.766Z,33.75
2022-08-28T06:35:11.739Z,28.12
2022-08-28T06:41:31.723Z,28.12
2022-08-28T06:47:54.765Z,33.75
2022-08-28T06:54:17.246Z,39.38
2022-08-28T07:00:37.737Z,45
2022-08-28T07:06:57.736Z,45
2022-08-28T07:13:20.729Z,39.38
2022-08-28T07:19:40.758Z,33.75
2022-08-28T07:26:03.730Z,33.75
2022-08-28T07:32:23.737Z,33.75
2022-08-28T07:38:46.747Z,33.75
2022-08-28T07:45:06.912Z,33.75
2022-08-28T07:51:29.759Z,39.38
2022-08-28T07:57:49.724Z,39.38
2022-08-28T08:04:12.813Z,39.38
2022-08-28T08:10:34.225Z,45
2022-08-28T08:16:56.749Z,45
2022-08-28T08:23:18.029Z,45
2022-08-28T08:29:40.795Z,50.62
2022-08-28T08:36:00.831Z,50.62
2022-08-28T08:42:23.726Z,56.25
2022-08-28T08:48:43.758Z,56.25
2022-08-28T08:55:06.953Z,56.25
2022-08-28T09:01:26.768Z,61.88
2022-08-28T09:07:53.077Z,61.88
2022-08-28T09:14:09.727Z,61.88
2022-08-28T09:20:33.475Z,61.88
2022-08-28T09:26:52.731Z,61.88
2022-08-28T09:33:15.728Z,67.5
2022-08-28T09:39:35.751Z,61.88
2022-08-28T09:45:58.753Z,73.12
2022-08-28T10:09:39.264Z,61.88
2022-08-28T10:15:58.791Z,78.75
2022-08-28T10:22:21.783Z,73.12
2022-08-28T10:28:41.730Z,90
2022-08-28T10:35:04.727Z,73.12
2022-08-28T10:41:24.765Z,101.25
2022-08-28T10:47:47.730Z,101.25
2022-08-28T10:54:07.765Z,106.88
2022-08-28T11:00:30.732Z,101.25
2022-08-28T11:06:50.735Z,95.62
2022-08-28T11:13:13.888Z,95.62
2022-08-28T11:19:33.728Z,95.62
2022-08-28T11:25:56.755Z,101.25
2022-08-28T11:32:16.727Z,101.25
2022-08-28T11:38:39.733Z,106.88
2022-08-28T11:44:59.752Z,106.88
2022-08-28T11:51:22.725Z,112.5
2022-08-28T11:57:42.766Z,112.5
2022-08-28T12:04:08.209Z,118.12
2022-08-28T12:10:25.964Z,123.75
2022-08-28T12:16:48.756Z,129.38
2022-08-28T12:23:08.742Z,129.38
2022-08-28T12:29:31.771Z,129.38
2022-08-28T12:35:51.731Z,135
2022-08-28T12:42:14.761Z,135
2022-08-28T12:48:34.740Z,135
2022-08-28T12:54:57.729Z,140.62
2022-08-28T13:01:17.855Z,140.62
2022-08-28T13:07:40.731Z,140.62
2022-08-28T13:14:00.729Z,140.62
2022-08-28T13:20:23.752Z,146.25
2022-08-28T13:26:43.734Z,140.62
2022-08-28T13:33:06.813Z,146.25
2022-08-28T13:39:26.730Z,146.25
2022-08-28T13:45:49.760Z,140.62
2022-08-28T13:52:09.743Z,140.62
2022-08-28T13:58:32.733Z,135
2022-08-28T14:04:52.763Z,135
2022-08-28T14:11:15.733Z,118.12
2022-08-28T14:17:35.723Z,112.5
2022-08-28T14:23:58.752Z,118.12
2022-08-28T14:30:18.719Z,112.5
2022-08-28T14:36:41.769Z,101.25
2022-08-28T14:43:01.731Z,95.62
2022-08-28T14:49:24.765Z,95.62
2022-08-28T14:55:44.728Z,90
2022-08-28T15:02:07.733Z,84.38
2022-08-28T15:08:27.766Z,90
2022-08-28T15:14:54.977Z,84.38
2022-08-28T15:21:10.772Z,90
2022-08-28T15:27:33.755Z,90
2022-08-28T15:33:53.729Z,90
2022-08-28T15:40:16.798Z,95.62
2022-08-28T15:46:36.727Z,90
2022-08-28T15:52:59.765Z,90
2022-08-28T16:09:07.644Z,95.62
2022-08-28T16:15:27.770Z,95.62
2022-08-28T16:21:50.749Z,95.62
2022-08-28T16:28:10.782Z,95.62
2022-08-28T16:34:33.737Z,84.38
2022-08-28T16:40:53.763Z,84.38
2022-08-28T16:47:16.727Z,78.75
2022-08-28T16:53:36.730Z,67.5
2022-08-28T16:59:59.748Z,61.88
2022-08-28T17:06:19.732Z,56.25
2022-08-28T17:12:42.819Z,45
2022-08-28T17:19:02.722Z,39.38
2022-08-28T17:25:25.729Z,33.75
2022-08-28T17:31:45.790Z,28.12
2022-08-28T17:38:08.737Z,22.5
2022-08-28T17:44:28.773Z,16.88
2022-08-28T17:50:51.730Z,11.25
2022-08-28T17:57:11.737Z,11.25
2022-08-28T18:03:36.678Z,5.62
2022-08-28T18:09:54.738Z,5.62
2022-08-28T18:16:17.834Z,0
2022-08-28T18:22:37.721Z,0
2022-08-28T18:29:00.758Z,0
2022-08-28T18:35:20.730Z,0
2022-08-28T18:41:44.733Z,0
2022-08-28T18:48:03.748Z,0
2022-08-28T18:54:26.732Z,0
2022-08-28T19:00:46.805Z,0
2022-08-28T19:07:09.735Z,0
2022-08-28T19:13:29.721Z,0
2022-08-28T19:19:52.761Z,0
2022-08-28T19:26:12.728Z,0
2022-08-28T19:32:35.759Z,0
2022-08-28T19:38:55.734Z,0
2022-08-28T19:45:18.730Z,0
2022-08-28T19:51:38.775Z,0
2022-08-28T19:58:01.724Z,0
2022-08-28T20:04:21.755Z,0
2022-08-28T20:10:44.745Z,0
2022-08-28T20:17:04.716Z,0
2022-08-28T20:23:27.944Z,0
2022-08-28T20:29:47.720Z,0
2022-08-28T20:36:10.758Z,0
2022-08-28T20:42:31.721Z,0
2022-08-28T20:48:53.744Z,0
2022-08-28T20:55:13.806Z,0
2022-08-28T21:01:36.843Z,0
2022-08-28T21:07:56.775Z,0
2022-08-28T21:14:19.722Z,0
2022-08-28T21:20:39.734Z,0
2022-08-28T21:27:02.741Z,0
2022-08-28T21:33:22.722Z,0
2022-08-28T21:39:45.753Z,0
2022-08-28T21:55:52.554Z,0
2022-08-28T22:20:07.719Z,0
2022-08-28T22:26:27.789Z,0
2022-08-28T22:32:50.737Z,0
2022-08-28T22:39:10.727Z,0
2022-08-28T22:45:33.794Z,0
2022-08-28T22:51:53.736Z,0
2022-08-28T22:58:16.764Z,0
2022-08-28T23:04:36.747Z,0
2022-08-28T23:10:59.794Z,0
2022-08-28T23:17:19.761Z,0
2022-08-28T23:23:42.769Z,0
2022-08-28T23:30:02.779Z,0
2022-08-28T23:36:25.736Z,0
2022-08-28T23:42:45.719Z,0
2022-08-28T23:49:08.781Z,0
2022-08-28T23:55:28.754Z,0
